Time;durP1;ratioP1;P1;durP2;ratioP2;P2;SDS_P1;SDS_P2;PMS_P1;PMS_P2;Temp;Humidity;BMP_temperature;BMP_pressure;BME280_temperature;BME280_humidity;BME280_pressure;Samples;Min_cycle;Max_cycle;Signal;HPM_P1;HPM_P2
2022/05/14 00:01:14;;;;;;;4.63;2.97;;;18.60;47.70;;;;;;5068880;28;20466;-86
2022/05/14 00:03:42;;;;;;;3.50;3.20;;;18.60;47.90;;;;;;5079482;28;20439;-88
2022/05/14 00:06:11;;;;;;;5.60;3.20;;;18.60;48.10;;;;;;5088541;28;20463;-87
2022/05/14 00:08:39;;;;;;;4.77;3.10;;;18.50;47.90;;;;;;5061457;28;21173;-87
2022/05/14 00:13:52;;;;;;;7.30;3.80;;;18.60;48.40;;;;;;5069962;28;20962;-88
2022/05/14 00:16:23;;;;;;;5.17;3.80;;;18.50;48.40;;;;;;5086854;28;20496;-86
2022/05/14 00:18:51;;;;;;;6.20;5.60;;;18.40;48.30;;;;;;5088868;28;20442;-87
2022/05/14 00:21:19;;;;;;;6.93;3.87;;;18.40;48.00;;;;;;5072008;28;21222;-88
2022/05/14 00:23:46;;;;;;;5.57;4.03;;;18.40;48.00;;;;;;5088681;28;20443;-87
2022/05/14 00:26:13;;;;;;;4.63;3.40;;;18.30;48.10;;;;;;5061402;28;20455;-86
2022/05/14 00:28:41;;;;;;;6.00;2.90;;;18.20;48.50;;;;;;5087327;28;20442;-89
2022/05/14 00:31:09;;;;;;;3.23;2.50;;;18.20;48.70;;;;;;5068031;28;21199;-87
2022/05/14 00:33:37;;;;;;;4.67;2.80;;;18.10;49.10;;;;;;5069735;28;20466;-86
2022/05/14 00:36:05;;;;;;;2.70;2.47;;;18.20;49.30;;;;;;5050876;28;20462;-86
2022/05/14 00:38:32;;;;;;;2.80;2.23;;;18.10;49.60;;;;;;5062207;28;20879;-86
2022/05/14 00:41:01;;;;;;;2.40;2.20;;;18.10;49.70;;;;;;5078841;28;21053;-86
2022/05/14 00:43:29;;;;;;;4.10;3.10;;;18.10;49.30;;;;;;5067996;28;20463;-86
2022/05/14 00:46:00;;;;;;;5.70;3.70;;;18.10;49.00;;;;;;5088463;28;20460;-88
2022/05/14 00:48:33;;;;;;;3.07;2.80;;;18.10;48.70;;;;;;5087761;28;20463;-87
2022/05/14 00:51:02;;;;;;;3.20;2.73;;;18.00;48.60;;;;;;5052737;28;20476;-87
2022/05/14 00:53:34;;;;;;;6.90;2.90;;;18.00;48.70;;;;;;5062482;28;20529;-86
2022/05/14 00:56:06;;;;;;;3.10;2.80;;;17.90;48.90;;;;;;5070618;28;20455;-87
2022/05/14 00:58:38;;;;;;;2.87;2.67;;;17.90;48.90;;;;;;5053680;28;20452;-87
2022/05/14 01:01:07;;;;;;;6.60;2.63;;;17.90;48.90;;;;;;5071466;28;20491;-86
2022/05/14 01:03:34;;;;;;;3.60;2.80;;;17.90;49.30;;;;;;5060973;28;20490;-88
2022/05/14 01:06:05;;;;;;;3.70;3.40;;;17.90;49.40;;;;;;5063282;28;20544;-86
2022/05/14 01:08:34;;;;;;;3.40;3.10;;;17.80;49.50;;;;;;5073813;28;20455;-88
2022/05/14 01:11:02;;;;;;;6.00;3.10;;;17.80;48.80;;;;;;5074145;28;20477;-86
2022/05/14 01:13:29;;;;;;;4.27;3.87;;;17.70;48.40;;;;;;5059301;28;21008;-86
2022/05/14 01:16:00;;;;;;;3.90;3.53;;;17.70;48.30;;;;;;5053717;28;20453;-87
2022/05/14 01:18:33;;;;;;;3.13;2.83;;;17.60;48.60;;;;;;5057028;28;20474;-87
2022/05/14 01:21:05;;;;;;;4.00;3.30;;;17.60;48.70;;;;;;5072476;28;20475;-86
2022/05/14 01:26:31;;;;;;;4.53;3.57;;;17.50;48.50;;;;;;5084646;28;20527;-86
2022/05/14 01:29:08;;;;;;;3.73;3.43;;;17.40;48.70;;;;;;5072161;28;20543;-87
2022/05/14 01:31:36;;;;;;;2.93;2.73;;;17.40;48.80;;;;;;5063447;28;20478;-87
2022/05/14 01:34:09;;;;;;;4.83;3.63;;;17.40;49.00;;;;;;5071703;28;20470;-88
2022/05/14 01:36:38;;;;;;;3.57;3.27;;;17.30;48.90;;;;;;5068008;28;20511;-86
2022/05/14 01:39:06;;;;;;;3.77;2.90;;;17.30;49.90;;;;;;5080081;28;20451;-86
2022/05/14 01:41:35;;;;;;;3.10;2.90;;;17.30;49.40;;;;;;5073085;28;20501;-87
2022/05/14 01:44:04;;;;;;;6.07;3.13;;;17.20;49.60;;;;;;5061664;28;21079;-87
2022/05/14 01:46:31;;;;;;;3.70;3.07;;;17.20;49.50;;;;;;5056108;28;20533;-87
2022/05/14 01:48:58;;;;;;;3.70;2.70;;;17.20;49.50;;;;;;5084028;28;20526;-86
2022/05/14 01:51:25;;;;;;;4.03;3.13;;;17.20;50.60;;;;;;5063858;28;20467;-86
2022/05/14 01:53:53;;;;;;;4.00;2.43;;;17.20;50.70;;;;;;5057614;28;20511;-88
2022/05/14 01:56:20;;;;;;;2.73;2.47;;;17.10;49.60;;;;;;5084114;28;20454;-86
2022/05/14 01:58:49;;;;;;;3.30;3.00;;;17.10;49.70;;;;;;5065924;28;20447;-87
2022/05/14 02:01:22;;;;;;;3.67;3.23;;;17.10;50.10;;;;;;5048829;28;20471;-87
2022/05/14 02:03:51;;;;;;;2.77;2.57;;;17.00;50.00;;;;;;5042130;28;20447;-86
2022/05/14 02:06:19;;;;;;;3.40;3.10;;;17.00;49.80;;;;;;5076352;28;20463;-86
2022/05/14 02:08:46;;;;;;;4.43;3.20;;;17.00;49.60;;;;;;5072913;28;20436;-87
2022/05/14 02:11:14;;;;;;;4.33;3.30;;;17.00;49.40;;;;;;5057052;28;20467;-86
2022/05/14 02:13:44;;;;;;;4.07;3.10;;;17.00;49.00;;;;;;5057059;28;20462;-86
2022/05/14 02:16:13;;;;;;;3.27;3.00;;;16.90;49.30;;;;;;5076290;28;20462;-86
2022/05/14 02:18:41;;;;;;;4.00;3.70;;;16.90;49.30;;;;;;5074141;28;20937;-86
2022/05/14 02:21:09;;;;;;;4.10;3.20;;;16.90;49.20;;;;;;5048887;28;20521;-90
2022/05/14 02:23:38;;;;;;;3.73;3.43;;;16.80;49.30;;;;;;5050362;28;20530;-86
2022/05/14 02:26:06;;;;;;;3.30;3.00;;;16.80;49.40;;;;;;5057128;28;20451;-86
2022/05/14 02:28:35;;;;;;;5.33;3.20;;;16.80;49.20;;;;;;5055093;28;20444;-86
2022/05/14 02:31:03;;;;;;;3.60;3.30;;;16.70;49.20;;;;;;5074442;28;21222;-86
2022/05/14 02:33:31;;;;;;;4.93;3.60;;;16.60;49.20;;;;;;5076369;28;20448;-87
2022/05/14 02:36:00;;;;;;;5.63;3.13;;;16.60;49.70;;;;;;5061570;28;21187;-88
2022/05/14 02:38:28;;;;;;;4.13;3.20;;;16.60;49.50;;;;;;5072013;28;20454;-88
2022/05/14 02:40:57;;;;;;;3.93;3.50;;;16.60;49.20;;;;;;5049673;28;20463;-88
2022/05/14 02:43:24;;;;;;;3.50;3.20;;;16.60;49.10;;;;;;5076849;28;21090;-87
2022/05/14 02:45:51;;;;;;;3.70;2.97;;;16.60;49.10;;;;;;5090877;28;20440;-87
2022/05/14 02:48:18;;;;;;;3.67;3.17;;;16.60;49.60;;;;;;5083244;28;20443;-86
2022/05/14 02:50:47;;;;;;;7.60;3.03;;;16.50;50.00;;;;;;5074871;28;20503;-86
2022/05/14 02:53:14;;;;;;;3.47;2.50;;;16.40;49.90;;;;;;5059053;28;20459;-86
2022/05/14 02:55:41;;;;;;;3.27;2.97;;;16.40;49.90;;;;;;5082203;28;20506;-86
2022/05/14 02:58:08;;;;;;;3.77;3.27;;;16.40;50.00;;;;;;5073088;28;21095;-86
2022/05/14 03:00:35;;;;;;;6.37;3.60;;;16.40;50.20;;;;;;5092141;28;20656;-87
2022/05/14 03:03:02;;;;;;;4.77;3.40;;;16.40;50.50;;;;;;5060088;28;20447;-86
2022/05/14 03:05:29;;;;;;;4.53;3.70;;;16.40;51.00;;;;;;5074926;28;20447;-86
2022/05/14 03:07:58;;;;;;;4.87;3.90;;;16.40;51.30;;;;;;5048957;28;20458;-88
2022/05/14 03:10:25;;;;;;;5.97;3.50;;;16.40;51.30;;;;;;5074312;28;20474;-87
2022/05/14 03:12:52;;;;;;;5.37;4.20;;;16.50;51.40;;;;;;5058134;28;20499;-86
2022/05/14 03:15:19;;;;;;;4.23;3.90;;;16.40;51.40;;;;;;5047923;28;20511;-88
2022/05/14 03:17:46;;;;;;;7.27;4.47;;;16.40;51.40;;;;;;5075557;28;20482;-87
2022/05/14 03:20:14;;;;;;;7.70;4.67;;;16.30;51.30;;;;;;5065754;28;21126;-86
2022/05/14 03:22:42;;;;;;;6.27;4.50;;;16.30;51.60;;;;;;5068631;28;20543;-87
2022/05/14 03:25:11;;;;;;;5.10;4.63;;;16.20;51.60;;;;;;5058126;28;21024;-87
2022/05/14 03:27:38;;;;;;;6.40;4.60;;;16.20;51.20;;;;;;5070722;28;20447;-84
2022/05/14 03:30:07;;;;;;;5.43;4.20;;;16.20;51.20;;;;;;5046911;28;20457;-86
2022/05/14 03:32:34;;;;;;;6.67;5.47;;;16.20;50.90;;;;;;5059437;28;20463;-87
2022/05/14 03:35:02;;;;;;;6.80;5.43;;;15.90;50.70;;;;;;5071732;28;20971;-86
2022/05/14 03:37:30;;;;;;;10.10;5.50;;;15.80;50.70;;;;;;5052969;28;20444;-87
2022/05/14 03:39:57;;;;;;;8.70;5.30;;;15.50;51.20;;;;;;5047404;28;20455;-88
2022/05/14 03:42:26;;;;;;;5.07;4.57;;;15.50;51.50;;;;;;5076999;28;20952;-86
2022/05/14 03:44:53;;;;;;;5.20;4.40;;;15.60;51.50;;;;;;5063453;28;20441;-83
2022/05/14 03:47:20;;;;;;;4.63;4.07;;;15.60;51.00;;;;;;5057378;28;20453;-88
2022/05/14 03:49:47;;;;;;;4.53;4.07;;;15.70;50.90;;;;;;5054817;28;20451;-86
2022/05/14 03:52:15;;;;;;;4.33;3.83;;;15.60;51.00;;;;;;5070294;28;20847;-86
2022/05/14 03:54:43;;;;;;;5.13;3.57;;;15.70;50.90;;;;;;5072123;28;20490;-87
2022/05/14 03:57:10;;;;;;;3.70;3.40;;;15.70;50.80;;;;;;5038482;28;20489;-87
2022/05/14 03:59:39;;;;;;;3.43;3.10;;;15.80;50.70;;;;;;5072550;28;20715;-87
2022/05/14 04:02:06;;;;;;;7.30;4.37;;;15.80;51.30;;;;;;5071422;28;20566;-87
2022/05/14 04:04:34;;;;;;;6.37;3.27;;;15.90;51.70;;;;;;5063884;28;20455;-87
2022/05/14 04:07:01;;;;;;;4.37;3.53;;;15.90;51.40;;;;;;5040272;28;20460;-86
2022/05/14 04:09:28;;;;;;;7.40;4.07;;;15.90;51.30;;;;;;5044813;28;20911;-87
2022/05/14 04:11:56;;;;;;;3.60;3.30;;;15.90;52.00;;;;;;5065415;28;20859;-89
2022/05/14 04:14:24;;;;;;;7.43;4.23;;;15.90;51.90;;;;;;5072374;28;20527;-86
2022/05/14 04:16:54;;;;;;;5.33;4.03;;;15.90;52.10;;;;;;5074922;28;21218;-84
2022/05/14 04:19:21;;;;;;;6.10;3.77;;;15.90;52.10;;;;;;5054220;28;20443;-87
2022/05/14 04:21:48;;;;;;;9.17;4.30;;;16.00;52.30;;;;;;5049205;28;20474;-86
2022/05/14 04:24:15;;;;;;;5.90;4.30;;;16.00;52.40;;;;;;5062898;28;20801;-86
2022/05/14 04:26:43;;;;;;;4.17;3.53;;;15.90;52.90;;;;;;5058817;28;20451;-86
2022/05/14 04:29:10;;;;;;;5.87;4.40;;;15.90;53.00;;;;;;5063901;28;20533;-87
2022/05/14 04:31:39;;;;;;;5.53;3.67;;;15.90;53.00;;;;;;5072112;28;20594;-88
2022/05/14 04:34:08;;;;;;;4.67;3.83;;;16.00;52.90;;;;;;5064529;28;20451;-87
2022/05/14 04:36:35;;;;;;;5.13;4.40;;;15.60;54.00;;;;;;5080558;28;20479;-87
2022/05/14 04:39:02;;;;;;;5.10;3.37;;;15.70;54.00;;;;;;5074344;28;20451;-86
2022/05/14 04:41:30;;;;;;;5.70;3.33;;;15.80;54.00;;;;;;5071966;28;20487;-86
2022/05/14 04:43:58;;;;;;;4.80;3.57;;;15.80;53.90;;;;;;5070370;28;20486;-85
2022/05/14 04:46:27;;;;;;;4.90;3.83;;;15.90;53.90;;;;;;5074133;28;20444;-88
2022/05/14 04:48:54;;;;;;;4.10;3.80;;;16.00;53.20;;;;;;5057000;28;20460;-87
2022/05/14 04:51:22;;;;;;;3.90;3.60;;;15.90;53.20;;;;;;5065504;28;21028;-86
2022/05/14 04:53:50;;;;;;;7.03;3.43;;;15.90;53.20;;;;;;5073531;28;20934;-88
2022/05/14 04:56:17;;;;;;;4.23;3.60;;;15.90;53.30;;;;;;5073220;28;20467;-86
2022/05/14 04:58:44;;;;;;;3.47;3.20;;;15.90;53.00;;;;;;5053436;28;20435;-86
2022/05/14 05:01:12;;;;;;;4.20;3.50;;;15.90;53.20;;;;;;5055934;28;20467;-87
2022/05/14 05:03:38;;;;;;;4.40;4.00;;;15.90;53.00;;;;;;5056887;28;21230;-87
2022/05/14 05:06:06;;;;;;;5.63;4.97;;;15.90;52.90;;;;;;5042346;28;20459;-86
2022/05/14 05:08:34;;;;;;;4.67;3.77;;;16.00;52.80;;;;;;5057919;28;20453;-85
2022/05/14 05:11:01;;;;;;;4.70;3.73;;;16.00;52.50;;;;;;5089034;28;20464;-87
2022/05/14 05:13:30;;;;;;;5.00;4.27;;;16.00;52.60;;;;;;5071908;28;20441;-89
2022/05/14 05:15:57;;;;;;;5.00;4.40;;;16.00;52.60;;;;;;5090317;28;20473;-86
2022/05/14 05:18:25;;;;;;;4.23;3.47;;;15.90;52.80;;;;;;5087603;28;20443;-87
2022/05/14 05:20:54;;;;;;;3.87;3.47;;;15.90;53.00;;;;;;5065218;28;20479;-87
2022/05/14 05:23:23;;;;;;;6.63;3.33;;;15.90;53.20;;;;;;5054495;28;20499;-87
2022/05/14 05:25:51;;;;;;;5.50;3.60;;;16.00;53.00;;;;;;5089077;28;20438;-86
2022/05/14 05:28:19;;;;;;;7.73;3.83;;;15.90;53.10;;;;;;5070452;28;20444;-86
2022/05/14 05:30:46;;;;;;;5.00;3.97;;;15.90;53.50;;;;;;5055648;28;20463;-88
2022/05/14 05:33:16;;;;;;;4.90;3.83;;;15.80;53.60;;;;;;5056802;28;20450;-86
2022/05/14 05:35:44;;;;;;;4.27;3.80;;;15.90;53.60;;;;;;5074204;28;20475;-87
2022/05/14 05:38:11;;;;;;;4.17;3.70;;;16.00;53.30;;;;;;5072000;28;20451;-86
2022/05/14 05:40:38;;;;;;;4.23;3.73;;;16.10;53.00;;;;;;5089519;28;20455;-87
2022/05/14 05:43:09;;;;;;;6.47;4.27;;;16.20;53.30;;;;;;5089689;28;20512;-86
2022/05/14 05:45:36;;;;;;;7.63;4.10;;;16.10;53.00;;;;;;5071169;28;20849;-86
2022/05/14 05:48:04;;;;;;;5.40;4.53;;;16.00;53.30;;;;;;5088912;28;20460;-86
2022/05/14 05:50:33;;;;;;;3.90;3.50;;;15.90;53.50;;;;;;5090007;28;20466;-88
2022/05/14 05:53:00;;;;;;;4.10;3.70;;;15.90;53.90;;;;;;5080217;28;20496;-87
2022/05/14 05:58:13;;;;;;;5.80;4.00;;;15.90;54.30;;;;;;5072014;28;20777;-87
2022/05/14 06:00:41;;;;;;;7.53;3.73;;;16.00;54.00;;;;;;5088255;28;20474;-86
2022/05/14 06:03:08;;;;;;;5.13;3.97;;;16.00;54.00;;;;;;5086717;28;20534;-87
2022/05/14 06:05:35;;;;;;;6.13;3.90;;;15.90;54.40;;;;;;5087874;28;20452;-88
2022/05/14 06:08:07;;;;;;;5.30;3.70;;;16.00;54.40;;;;;;5063222;28;20442;-87
2022/05/14 06:10:34;;;;;;;4.57;3.27;;;16.10;54.60;;;;;;5070407;28;20471;-86
2022/05/14 06:13:01;;;;;;;6.07;4.90;;;16.50;53.80;;;;;;5088176;28;20451;-87
2022/05/14 06:15:29;;;;;;;4.50;4.10;;;16.80;53.10;;;;;;5087893;28;20984;-87
2022/05/14 06:18:01;;;;;;;8.93;4.10;;;16.90;53.20;;;;;;5075367;28;20443;-86
2022/05/14 06:20:29;;;;;;;8.00;4.10;;;16.80;54.10;;;;;;5091243;28;20487;-87
2022/05/14 06:22:56;;;;;;;4.90;3.50;;;16.80;53.80;;;;;;5073808;28;20451;-87
2022/05/14 06:25:23;;;;;;;5.27;3.37;;;16.80;53.60;;;;;;5092872;28;20451;-86
2022/05/14 06:27:50;;;;;;;3.77;3.37;;;16.80;53.50;;;;;;5090257;28;20462;-88
2022/05/14 06:30:17;;;;;;;5.30;3.80;;;16.90;53.50;;;;;;5065640;28;20474;-89
2022/05/14 06:32:46;;;;;;;8.73;4.00;;;17.00;53.30;;;;;;5089221;28;20517;-87
2022/05/14 06:35:12;;;;;;;4.60;3.80;;;17.20;52.70;;;;;;5071684;28;20454;-88
2022/05/14 06:37:40;;;;;;;7.20;3.30;;;17.40;52.20;;;;;;5068295;28;20455;-88
2022/05/14 06:40:08;;;;;;;7.70;4.00;;;17.40;52.40;;;;;;5045648;28;20516;-87
2022/05/14 06:42:36;;;;;;;9.90;4.10;;;17.50;52.50;;;;;;5070117;28;20451;-87
2022/05/14 06:45:03;;;;;;;3.67;3.37;;;17.50;52.40;;;;;;5080021;28;20470;-86
2022/05/14 06:47:30;;;;;;;4.17;3.70;;;17.60;51.90;;;;;;5090677;28;20446;-87
2022/05/14 06:49:59;;;;;;;3.90;3.27;;;17.70;53.20;;;;;;5069374;28;21202;-88
2022/05/14 06:52:26;;;;;;;3.90;3.50;;;18.00;51.90;;;;;;5079376;28;20479;-88
2022/05/14 06:54:55;;;;;;;6.27;3.87;;;18.40;50.80;;;;;;5070269;28;20521;-86
2022/05/14 06:57:22;;;;;;;10.07;3.37;;;18.40;51.00;;;;;;5074724;28;21076;-87
2022/05/14 06:59:50;;;;;;;5.87;3.60;;;18.30;51.20;;;;;;5047059;28;20454;-87
2022/05/14 07:02:18;;;;;;;3.60;3.23;;;18.20;51.20;;;;;;5070995;28;20467;-86
2022/05/14 07:07:33;;;;;;;5.10;3.27;;;18.90;51.10;;;;;;5053863;28;20436;-86
2022/05/14 07:10:02;;;;;;;3.80;3.43;;;19.10;49.90;;;;;;5069991;28;20446;-86
2022/05/14 07:12:30;;;;;;;3.30;3.00;;;19.20;50.20;;;;;;5073726;28;20845;-87
2022/05/14 07:14:57;;;;;;;3.00;2.70;;;19.20;50.00;;;;;;5046865;28;20508;-87
2022/05/14 07:17:25;;;;;;;3.10;2.73;;;19.20;50.30;;;;;;5070136;28;20467;-88
2022/05/14 07:19:52;;;;;;;3.43;2.70;;;19.20;50.10;;;;;;5057640;28;20446;-87
2022/05/14 07:22:20;;;;;;;4.83;3.57;;;19.40;49.70;;;;;;5062914;28;20542;-87
2022/05/14 07:24:48;;;;;;;5.53;3.07;;;19.30;49.70;;;;;;5089250;28;21039;-87
2022/05/14 07:27:15;;;;;;;4.70;2.73;;;19.30;50.40;;;;;;5087713;28;20516;-88
2022/05/14 07:29:45;;;;;;;13.80;2.40;;;19.60;49.80;;;;;;5079331;28;20455;-86
2022/05/14 07:32:16;;;;;;;3.57;2.43;;;19.70;49.80;;;;;;5072440;28;21934;-84
2022/05/14 07:34:44;;;;;;;4.73;3.00;;;19.70;49.60;;;;;;5072482;28;20439;-86
2022/05/14 07:37:16;;;;;;;3.87;2.90;;;19.80;49.30;;;;;;5070174;28;20459;-86
2022/05/14 07:39:46;;;;;;;2.97;2.67;;;20.20;49.60;;;;;;5062512;28;20457;-88
2022/05/14 07:42:18;;;;;;;5.23;2.70;;;20.40;48.40;;;;;;5073154;28;20485;-86
2022/05/14 07:44:48;;;;;;;2.43;2.23;;;20.60;47.20;;;;;;5078333;28;20455;-86
2022/05/14 07:47:17;;;;;;;3.17;2.80;;;20.70;47.90;;;;;;5070750;28;20435;-87
2022/05/14 07:49:45;;;;;;;4.50;2.73;;;21.00;47.40;;;;;;5072518;28;20448;-88
2022/05/14 07:52:14;;;;;;;4.43;3.13;;;21.10;45.10;;;;;;5075239;28;22768;-87
2022/05/14 07:54:41;;;;;;;6.13;3.07;;;20.90;45.40;;;;;;5064853;28;20447;-87
2022/05/14 07:57:08;;;;;;;3.00;2.67;;;20.80;44.60;;;;;;5075397;28;20464;-87
2022/05/14 07:59:37;;;;;;;2.73;2.50;;;20.80;45.90;;;;;;5059350;28;20447;-87
2022/05/14 08:02:06;;;;;;;3.60;2.50;;;20.90;45.00;;;;;;5069094;28;20585;-88
2022/05/14 08:04:33;;;;;;;4.00;2.50;;;21.00;44.30;;;;;;5087731;28;20451;-87
2022/05/14 08:07:00;;;;;;;3.97;2.37;;;21.20;44.60;;;;;;5088679;28;20456;-89
2022/05/14 08:09:27;;;;;;;3.57;2.37;;;21.20;44.70;;;;;;5088824;28;20457;-87
2022/05/14 08:11:54;;;;;;;4.53;2.83;;;21.30;44.70;;;;;;5084496;28;20493;-89
2022/05/14 08:14:21;;;;;;;3.63;2.60;;;21.30;44.30;;;;;;5069268;28;20654;-87
2022/05/14 08:16:49;;;;;;;4.70;2.73;;;21.40;44.10;;;;;;5068074;28;20451;-88
2022/05/14 08:19:16;;;;;;;3.77;2.57;;;21.50;44.00;;;;;;5085654;28;20455;-88
2022/05/14 08:24:35;;;;;;;3.30;2.60;;;21.80;43.50;;;;;;5061321;28;20450;-87
2022/05/14 08:27:05;;;;;;;6.80;2.77;;;22.00;42.40;;;;;;5071599;28;20519;-87
2022/05/14 08:29:33;;;;;;;4.47;2.73;;;22.20;42.00;;;;;;5077483;28;20546;-89
2022/05/14 08:32:03;;;;;;;5.77;2.60;;;22.40;42.20;;;;;;5049713;28;20500;-88
2022/05/14 08:34:31;;;;;;;2.40;2.20;;;22.70;42.20;;;;;;5071299;28;20856;-87
2022/05/14 08:36:58;;;;;;;3.73;2.60;;;23.00;41.30;;;;;;5074766;28;20486;-90
2022/05/14 08:39:28;;;;;;;3.70;2.73;;;22.90;41.10;;;;;;5070989;28;20511;-88
2022/05/14 08:41:56;;;;;;;4.57;2.57;;;22.80;40.60;;;;;;5073212;28;21018;-89
2022/05/14 08:44:28;;;;;;;5.03;2.03;;;23.00;40.70;;;;;;5089452;28;20509;-88
2022/05/14 08:47:00;;;;;;;6.70;2.60;;;23.20;42.00;;;;;;5090063;28;21130;-88
2022/05/14 08:49:34;;;;;;;6.50;3.30;;;23.50;40.10;;;;;;5073063;28;20447;-89
2022/05/14 08:52:05;;;;;;;5.33;2.50;;;23.60;39.70;;;;;;5077064;28;20469;-88
2022/05/14 08:54:33;;;;;;;10.80;2.77;;;23.70;39.40;;;;;;5065008;28;20459;-88
2022/05/14 08:57:09;;;;;;;2.63;2.20;;;23.80;39.30;;;;;;5056721;28;20458;-88
2022/05/14 08:59:51;;;;;;;4.60;2.20;;;24.00;39.20;;;;;;5070319;28;20593;-88
2022/05/14 09:02:21;;;;;;;4.17;2.40;;;24.10;38.70;;;;;;5065640;28;20574;-87
2022/05/14 09:04:50;;;;;;;3.50;2.40;;;23.90;39.10;;;;;;5090347;28;20454;-87
2022/05/14 09:07:19;;;;;;;7.23;2.00;;;23.90;38.60;;;;;;5070336;28;20468;-89
2022/05/14 09:09:52;;;;;;;3.53;1.97;;;24.00;37.60;;;;;;5090133;28;20447;-88
2022/05/14 09:12:20;;;;;;;3.30;1.80;;;24.00;38.60;;;;;;5091072;28;20482;-88
2022/05/14 09:14:54;;;;;;;4.00;1.73;;;24.30;38.40;;;;;;5090376;28;20862;-87
2022/05/14 09:17:24;;;;;;;2.00;1.80;;;24.50;37.40;;;;;;5071890;28;21164;-88
2022/05/14 09:19:54;;;;;;;1.93;1.73;;;24.60;37.90;;;;;;5062708;28;20470;-87
2022/05/14 09:22:35;;;;;;;2.43;2.23;;;24.80;37.00;;;;;;5058968;28;20905;-89
2022/05/14 09:25:13;;;;;;;5.63;2.10;;;24.70;36.80;;;;;;5073746;28;20452;-88
2022/05/14 09:27:44;;;;;;;4.90;2.13;;;25.00;35.70;;;;;;5072582;28;20455;-87
2022/05/14 09:30:22;;;;;;;6.50;2.07;;;25.10;35.10;;;;;;5089283;28;20447;-87
2022/05/14 09:32:49;;;;;;;2.80;1.80;;;25.20;36.00;;;;;;5089401;28;21000;-87
2022/05/14 09:35:20;;;;;;;4.10;1.67;;;24.90;36.40;;;;;;5053097;28;20471;-88
2022/05/14 09:37:47;;;;;;;4.73;2.30;;;25.10;38.60;;;;;;5069661;28;20464;-88
2022/05/14 09:40:21;;;;;;;5.63;1.90;;;24.90;35.00;;;;;;5088080;28;20447;-88
2022/05/14 09:42:50;;;;;;;1.70;1.60;;;25.20;36.90;;;;;;5090450;28;20451;-89
2022/05/14 09:45:25;;;;;;;5.87;1.67;;;25.60;37.60;;;;;;5078009;28;20949;-88
2022/05/14 09:47:53;;;;;;;5.67;1.77;;;26.00;36.20;;;;;;5074121;28;20776;-86
2022/05/14 09:50:24;;;;;;;3.20;1.80;;;26.30;35.40;;;;;;5073329;28;20465;-88
2022/05/14 09:52:58;;;;;;;6.13;2.10;;;26.30;34.10;;;;;;5091223;28;20508;-89
2022/05/14 09:55:47;;;;;;;2.63;2.10;;;26.40;35.20;;;;;;5063310;28;20464;-88
2022/05/14 09:58:21;;;;;;;5.47;1.83;;;26.30;35.10;;;;;;5066661;28;20479;-88
2022/05/14 10:01:01;;;;;;;3.43;1.80;;;26.50;34.30;;;;;;5093813;28;20548;-88
2022/05/14 10:03:41;;;;;;;3.57;2.30;;;26.60;34.10;;;;;;5074359;28;20447;-87
2022/05/14 10:06:20;;;;;;;2.93;1.80;;;26.50;34.00;;;;;;5077085;28;20441;-88
2022/05/14 10:08:54;;;;;;;2.60;2.30;;;26.80;33.80;;;;;;5075078;28;20841;-87
2022/05/14 10:11:26;;;;;;;2.40;2.20;;;27.00;33.50;;;;;;5094137;28;20526;-88
2022/05/14 10:14:05;;;;;;;2.50;1.67;;;27.10;33.70;;;;;;5091166;28;20443;-89
2022/05/14 10:16:37;;;;;;;3.60;2.27;;;27.20;33.50;;;;;;5075173;28;20541;-89
2022/05/14 10:19:15;;;;;;;4.33;2.37;;;27.30;32.70;;;;;;5093186;28;20450;-89
2022/05/14 10:21:54;;;;;;;8.07;2.27;;;27.10;31.90;;;;;;5094719;28;20475;-88
2022/05/14 10:27:37;;;;;;;3.10;1.67;;;27.60;32.70;;;;;;5071540;28;20452;-88
2022/05/14 10:30:15;;;;;;;3.13;1.80;;;27.80;32.70;;;;;;5059721;28;20448;-88
2022/05/14 10:32:44;;;;;;;2.10;1.73;;;27.90;32.00;;;;;;5065803;28;21196;-87
2022/05/14 10:35:18;;;;;;;3.80;1.70;;;28.20;33.30;;;;;;5091643;28;21486;-89
2022/05/14 10:37:51;;;;;;;2.20;1.63;;;28.30;31.10;;;;;;5090657;28;20487;-88
2022/05/14 10:40:24;;;;;;;2.00;1.80;;;28.10;32.50;;;;;;5093215;28;21193;-89
2022/05/14 10:43:20;;;;;;;3.13;1.77;;;28.30;32.40;;;;;;5090061;27;20970;-89
2022/05/14 10:45:49;;;;;;;3.07;1.80;;;28.20;32.50;;;;;;5077585;28;20434;-90
2022/05/14 10:48:30;;;;;;;6.03;2.37;;;28.30;33.40;;;;;;5091262;28;20947;-89
2022/05/14 10:50:57;;;;;;;2.63;2.13;;;28.20;30.40;;;;;;5075019;28;20487;-88
2022/05/14 10:53:25;;;;;;;3.80;1.83;;;28.10;31.30;;;;;;5060286;28;20463;-87
2022/05/14 10:56:01;;;;;;;1.90;1.50;;;27.90;32.30;;;;;;5073305;28;20462;-87
2022/05/14 10:58:42;;;;;;;3.43;1.77;;;28.10;31.70;;;;;;5074145;28;20459;-89
2022/05/14 11:01:29;;;;;;;2.00;1.80;;;28.40;31.00;;;;;;5085186;28;20467;-89
2022/05/14 11:03:58;;;;;;;2.00;1.80;;;28.10;30.70;;;;;;5058619;28;20451;-88
2022/05/14 11:06:30;;;;;;;2.80;2.10;;;27.70;30.70;;;;;;5072835;28;20951;-88
2022/05/14 11:08:59;;;;;;;1.83;1.70;;;27.60;31.90;;;;;;5040454;28;20444;-87
2022/05/14 11:11:29;;;;;;;3.30;1.90;;;27.70;33.50;;;;;;5084045;28;20840;-89
2022/05/14 11:14:02;;;;;;;3.93;2.03;;;27.60;30.80;;;;;;5075000;28;20442;-88
2022/05/14 11:16:42;;;;;;;3.23;2.03;;;27.50;32.60;;;;;;5048670;28;21332;-88
2022/05/14 11:19:09;;;;;;;5.93;1.80;;;27.80;33.60;;;;;;5073819;28;20454;-89
2022/05/14 11:21:39;;;;;;;1.70;1.60;;;28.20;31.90;;;;;;5090450;28;20494;-90
2022/05/14 11:24:11;;;;;;;4.50;1.77;;;28.50;31.20;;;;;;5074880;28;20442;-89
2022/05/14 11:26:48;;;;;;;4.17;2.07;;;28.50;30.40;;;;;;5076364;28;20446;-89
2022/05/14 11:29:19;;;;;;;2.20;1.70;;;28.70;30.90;;;;;;5072710;28;20486;-88
2022/05/14 11:32:05;;;;;;;7.93;2.10;;;28.70;30.70;;;;;;5075407;28;20558;-88
2022/05/14 11:34:32;;;;;;;2.27;2.00;;;28.80;30.20;;;;;;5091321;28;20452;-88
2022/05/14 11:37:02;;;;;;;1.67;1.50;;;28.70;29.40;;;;;;5092798;28;20456;-87
2022/05/14 11:39:34;;;;;;;3.63;1.63;;;28.70;30.00;;;;;;5074733;28;20448;-88
2022/05/14 11:42:12;;;;;;;2.97;1.60;;;28.90;29.60;;;;;;5074237;28;20481;-87
2022/05/14 11:44:47;;;;;;;3.10;1.67;;;29.10;29.30;;;;;;5056426;28;20439;-89
2022/05/14 11:47:51;;;;;;;2.87;1.70;;;29.30;29.50;;;;;;5072796;28;20441;-90
2022/05/14 11:50:23;;;;;;;4.23;1.73;;;29.40;29.30;;;;;;5074181;28;20447;-89
2022/05/14 11:53:17;;;;;;;3.27;1.60;;;29.30;29.10;;;;;;5085959;28;20448;-88
2022/05/14 11:55:49;;;;;;;4.23;2.10;;;29.50;30.50;;;;;;5065265;28;20472;-89
2022/05/14 11:58:23;;;;;;;3.77;1.63;;;29.40;28.70;;;;;;5065498;28;21102;-90
2022/05/14 12:00:53;;;;;;;2.27;1.50;;;29.30;28.90;;;;;;5088202;28;20471;-91
2022/05/14 12:03:24;;;;;;;1.47;1.37;;;29.20;29.80;;;;;;5063880;28;20914;-89
2022/05/14 12:05:55;;;;;;;3.50;1.80;;;29.20;29.10;;;;;;5073621;28;20466;-89
2022/05/14 12:08:45;;;;;;;4.40;2.10;;;29.40;28.60;;;;;;5048260;28;20446;-90
2022/05/14 12:11:28;;;;;;;2.83;1.40;;;29.50;28.30;;;;;;5055874;28;22112;-88
2022/05/14 12:14:05;;;;;;;3.60;1.80;;;29.40;27.50;;;;;;5085553;28;20849;-90
2022/05/14 12:16:37;;;;;;;9.20;1.80;;;28.90;28.50;;;;;;5090604;28;20446;-88
2022/05/14 12:19:08;;;;;;;4.10;1.53;;;29.20;29.20;;;;;;5057958;28;20479;-90
2022/05/14 12:21:36;;;;;;;2.20;1.23;;;29.60;28.10;;;;;;5055685;28;20931;-89
2022/05/14 12:24:03;;;;;;;5.47;1.60;;;29.90;26.60;;;;;;5074256;28;20471;-89
2022/05/14 12:26:33;;;;;;;3.53;1.87;;;30.00;27.20;;;;;;5089544;28;20451;-90
2022/05/14 12:29:03;;;;;;;1.70;1.30;;;29.90;25.80;;;;;;5076681;28;20432;-88
2022/05/14 12:34:18;;;;;;;2.07;1.20;;;29.90;26.30;;;;;;5074873;28;20451;-89
2022/05/14 12:36:47;;;;;;;4.73;1.50;;;30.00;26.00;;;;;;5082566;28;20464;-90
2022/05/14 12:39:19;;;;;;;2.03;1.47;;;30.30;25.80;;;;;;5071449;28;20467;-88
2022/05/14 12:41:52;;;;;;;2.70;1.37;;;30.40;25.80;;;;;;5059718;28;20482;-88
2022/05/14 12:44:28;;;;;;;4.60;1.60;;;30.30;24.90;;;;;;5085772;28;20441;-90
2022/05/14 12:46:58;;;;;;;2.47;1.33;;;30.20;25.60;;;;;;5072472;28;20451;-88
2022/05/14 12:49:27;;;;;;;1.50;1.20;;;30.20;25.70;;;;;;5070276;28;21227;-90
2022/05/14 12:51:56;;;;;;;3.00;1.80;;;30.40;26.50;;;;;;5086337;28;20834;-88
2022/05/14 12:54:26;;;;;;;4.03;1.90;;;30.10;25.40;;;;;;5047645;28;20462;-91
2022/05/14 12:56:58;;;;;;;2.70;1.37;;;30.20;25.20;;;;;;5073671;28;20532;-91
2022/05/14 12:59:26;;;;;;;2.03;1.40;;;30.50;25.60;;;;;;5062530;28;20512;-89
2022/05/14 13:02:03;;;;;;;1.67;1.00;;;30.60;25.20;;;;;;5084767;28;20532;-88
2022/05/14 13:04:37;;;;;;;4.97;1.70;;;30.90;25.10;;;;;;5087316;28;20945;-88
2022/05/14 13:07:05;;;;;;;4.30;1.50;;;31.00;23.80;;;;;;5056745;28;20448;-89
2022/05/14 13:09:32;;;;;;;3.03;1.47;;;30.80;23.50;;;;;;5068959;28;20539;-88
2022/05/14 13:12:00;;;;;;;3.23;1.40;;;30.80;25.40;;;;;;5058698;28;20490;-88
2022/05/14 13:14:30;;;;;;;1.50;1.40;;;30.60;24.90;;;;;;5069251;28;20521;-87
2022/05/14 13:17:01;;;;;;;3.57;1.80;;;30.50;24.60;;;;;;5088431;28;20858;-88
2022/05/14 13:19:37;;;;;;;1.63;1.50;;;30.50;24.60;;;;;;5073537;28;20471;-89